Metar Cercanos

 

LEPA - Palma De Mallorc, Spain
Distance from station: ONO 38km
Actualización: 27/04/2018 02:30
Despejado
Despejado
 Viento del calm
Viento: Calma
Temperatura: 11°C
Rocío: 9°C
Humedad: 88%
Barómetro: 1014 hPa
Resumen: Despejado
Visibility: greater than 10 km
2018/04/27 00:30 LEPA 270030Z 00000KT CAVOK 11/09 Q1014 NOSIG
LEMH - Mahon/Menorca Is, Spain
Distance from station: ENE 105km
Actualización: 27/04/2018 02:30
Despejado
Despejado
 Viento del N
Viento: N 13 km/h
Temperatura: 13°C
Rocío: 10°C
Humedad: 82%
Barómetro: 1013 hPa
Resumen: Despejado
Visibility: greater than 10 km
2018/04/27 00:30 LEMH 270030Z AUTO 36007KT CAVOK 13/10 Q1013
 
LEIB - Ibiza/Es Codola, Spain
Distance from station: OSO 165km
Actualización: 27/04/2018 02:30
Despejado
Despejado
 Viento del calm
Viento: Calma
Temperatura: 13°C
Rocío: 10°C
Humedad: 82%
Barómetro: 1015 hPa
Resumen: Despejado
Visibility: greater than 10 km
2018/04/27 00:30 LEIB 270030Z 00000KT CAVOK 13/10 Q1015 NOSIG
LEBL - Barcelona Airpor, Spain
Distance from station: NNO 225km
Actualización: 27/04/2018 02:30
Few Clouds
Few Clouds
 Viento del varies
Viento: varies 2 km/h
Temperatura: 17°C
Rocío: 13°C
Humedad: 77%
Barómetro: 1014 hPa
Clouds: Few Clouds
Visibility: 10 km
Cloud details: Few Clouds 762 m
2018/04/27 00:30 LEBL 270030Z VRB01KT 9999 FEW025 17/13 Q1014 NOSIG
 
LEVC - Valencia (civ/Mi, Spain
Distance from station: NO 188km
Actualización: 27/04/2018 02:30
Despejado
Despejado
 Viento del varies
Viento: varies 2 km/h
Temperatura: 16°C
Rocío: 13°C
Humedad: 83%
Barómetro: 1014 hPa
Resumen: Despejado
Visibility: greater than 10 km
2018/04/27 00:30 LEVC 270030Z VRB01KT CAVOK 16/13 Q1014 NOSIG
LEGE - Gerona/Costa Bra, Spain
Distance from station: N 276km
Actualización: 27/04/2018 02:30
Few Clouds
Few Clouds
 Viento del calm
Viento: Calma
Temperatura: 11°C
Rocío: 7°C
Humedad: 77%
Barómetro: 1013 hPa
Clouds: Few Clouds
Visibility: 10 km
Cloud details: Few Clouds 1524 m
2018/04/27 00:30 LEGE 270030Z 00000KT 9999 FEW050 11/07 Q1013
 
LEAL - Alicante/El Alte, Spain
Distance from station: OSO 344km
Actualización: 27/04/2018 02:30
Few Clouds
Few Clouds
 Viento del O
Viento: O 4 km/h
Temperatura: 14°C
Rocío: 13°C
Humedad: 94%
Barómetro: 1015 hPa
Clouds: Few Clouds
Visibility: 10 km
Cloud details: Few Clouds 549 m
2018/04/27 00:30 LEAL 270030Z 26002KT 9999 FEW018 14/13 Q1015 NOSIG
LEAM - Almeria Airport, Spain
Distance from station: SSO 56km
Actualización: 27/04/2018 02:30
Mist, Muy nuboso
Mist, Muy nuboso
 Viento del calm
Viento: Calma
Temperatura: 15°C
Rocío: 14°C
Humedad: 94%
Barómetro: 1017 hPa
Resumen: Mist
Clouds: Muy nuboso
Visibility: 5 km
Cloud details: Muy nuboso 152 m
Muy nuboso 305 m
2018/04/27 00:30 LEAM 270030Z AUTO 00000KT 5000 2300SW BR BKN005/// BKN010/// 15/14 Q1017
 
LEZG - Zaragoza (mil/Ci, Spain
Distance from station: NO 431km
Actualización: 27/04/2018 02:30
Few Clouds
Few Clouds
 Viento del O
Viento: O 7 km/h
Temperatura: 13°C
Rocío: 9°C
Humedad: 77%
Barómetro: 1014 hPa
Clouds: Few Clouds
Visibility: 10 km
Cloud details: Few Clouds 2438 m
2018/04/27 00:30 LEZG 270030Z 28004KT 9999 FEW080 13/09 Q1014
LEMD - Madrid/Barajas, Spain
Distance from station: ONO 234km
Actualización: 27/04/2018 02:30
Despejado
Despejado
 Viento del SO
Viento: SO 13 km/h
Temperatura: 20°C
Rocío: 11°C
Humedad: 56%
Barómetro: 1014 hPa
Resumen: Despejado
Visibility: greater than 10 km
2018/04/27 00:30 LEMD 270030Z 22007KT CAVOK 20/11 Q1014 NOSIG
 
LEGR - Granada Airport, Spain
Distance from station: OSO 62km
Actualización: 27/04/2018 02:30
Muy nuboso
Muy nuboso
 Viento del S
Viento: S 4 km/h
Temperatura: 13°C
Rocío: 11°C
Humedad: 88%
Barómetro: 1018 hPa
Clouds: Muy nuboso
Visibility: 10 km
Cloud details: Muy nuboso 914 m
2018/04/27 00:30 LEGR 270030Z AUTO 17002KT 9999 BKN030/// 13/11 Q1018
LEMG - Malaga (civ/Mil), Spain
Distance from station: OSO 227km
Actualización: 27/04/2018 02:30
Muy nuboso
Muy nuboso
 Viento del varies
Viento: varies 2 km/h
Temperatura: 17°C
Rocío: 15°C
Humedad: 88%
Barómetro: 1018 hPa
Clouds: Muy nuboso
Visibility: 8 km
Cloud details: Few Clouds 305 m
Muy nuboso 914 m
2018/04/27 00:30 LEMG 270030Z VRB01KT 8000 FEW010 BKN030 17/15 Q1018 NOSIG
 
LEZL - Sevilla (civ/Mil, Spain
Distance from station: S 318km
Actualización: 27/04/2018 02:30
Few Clouds
Few Clouds
 Viento del O
Viento: O 13 km/h
Temperatura: 17°C
Rocío: 15°C
Humedad: 88%
Barómetro: 1017 hPa
Clouds: Few Clouds
Visibility: 10 km
Cloud details: Few Clouds 549 m
2018/04/27 00:30 LEZL 270030Z 26007KT 230V290 9999 FEW018 17/15 Q1017 NOSIG
LEVT - Vitoria, Spain
Distance from station: NO 226km
Actualización: 27/04/2018 02:30
Despejado
Despejado
 Viento del NE
Viento: NE 9 km/h
Temperatura: 4°C
Sensación frio: 2°C
Rocío: 4°C
Humedad: 100%
Barómetro: 1014 hPa
Resumen: Despejado
Visibility: greater than 10 km
2018/04/27 00:30 LEVT 270030Z 05005KT CAVOK 04/04 Q1014
 
LEBB - Bilbao/Sondica, Spain
Distance from station: NNO 235km
Actualización: 27/04/2018 02:30
Despejado
Despejado
 Viento del calm
Viento: Calma
Temperatura: 9°C
Rocío: 8°C
Humedad: 94%
Barómetro: 1014 hPa
Clouds: Despejado
Visibility: 9 km
2018/04/27 00:30 LEBB 270030Z AUTO 00000KT 9000 NCD 09/08 Q1014
LESO - San Sebastian/Fu, Spain
Distance from station: N 231km
Actualización: 27/04/2018 02:30
Despejado
Despejado
 Viento del S
Viento: S 9 km/h
Temperatura: 10°C
Sensación frio: 9°C
Rocío: 9°C
Humedad: 94%
Barómetro: 1014 hPa
Clouds: Despejado
Visibility: 10 km
2018/04/27 00:30 LESO 270030Z AUTO 18005KT 150V220 9999 NCD 10/09 Q1014
 
LEVD - Valladolid(Mil/C, Spain
Distance from station: ONO 239km
Actualización: 26/04/2018 22:00
NOT Current
Few Clouds
Few Clouds
 Viento del NNE
Viento: NNE 9 km/h
Temperatura: 15°C
Rocío: 10°C
Humedad: 72%
Barómetro: 1015 hPa
Clouds: Few Clouds
Visibility: 10 km
Cloud details: Few Clouds 1067 m
2018/04/26 20:00 LEVD 262000Z 02005KT 9999 FEW035CB 15/10 Q1015
LESA - Salamanca (civ/M, Spain
Distance from station: ONO 349km
Actualización: 26/04/2018 22:30
NOT Current
Few Clouds
Few Clouds
 Viento del OSO
Viento: OSO 13 km/h
Temperatura: 15°C
Rocío: 12°C
Humedad: 82%
Barómetro: 1016 hPa
Clouds: Few Clouds
Visibility: 10 km
Cloud details: Few Clouds 1067 m
2018/04/26 20:30 LESA 262030Z 25007KT 9999 FEW035 15/12 Q1016
 
LEXJ - Santander/Paraya, Spain
Distance from station: NNO 247km
Actualización: 27/04/2018 02:30
Parcialmente nuboso
Parcialmente nuboso
 Viento del varies
Viento: varies 4 km/h
Temperatura: 11°C
Rocío: 10°C
Humedad: 94%
Barómetro: 1014 hPa
Clouds: Parcialmente nuboso
Visibility: 7 km
2018/04/27 00:30 LEXJ 270030Z AUTO VRB02KT 7000 NSC 11/10 Q1014
LEAS - Asturias/Aviles, Spain
Distance from station: NO 214km
Actualización: 27/04/2018 02:30
Despejado
Despejado
 Viento del O
Viento: O 9 km/h
Temperatura: 9°C
Sensación frio: 7°C
Rocío: 8°C
Humedad: 94%
Barómetro: 1014 hPa
Clouds: Despejado
Visibility: 8 km
2018/04/27 00:30 LEAS 270030Z AUTO 27005KT 8000 NCD 09/08 Q1014
 
LECO - La Coruna/Alvedr, Spain
Distance from station: ONO 222km
Actualización: 27/04/2018 02:30
Cubierto
Cubierto
 Viento del S
Viento: S 9 km/h
Temperatura: 10°C
Sensación frio: 9°C
Rocío: 7°C
Humedad: 82%
Barómetro: 1016 hPa
Clouds: Cubierto
Visibility: 10 km
Cloud details: Muy nuboso 823 m
Cubierto 1036 m
2018/04/27 00:30 LECO 270030Z AUTO 19005KT 160V240 9999 BKN027/// OVC034/// 10/07 Q1016
LEVX - Vigo/Peinador, Spain
Distance from station: O 214km
Actualización: 27/04/2018 02:30
Despejado
Despejado
 Viento del calm
Viento: Calma
Temperatura: 10°C
Rocío: 8°C
Humedad: 88%
Barómetro: 1018 hPa
Resumen: Despejado
Visibility: greater than 10 km
2018/04/27 00:30 LEVX 270030Z 00000KT CAVOK 10/08 Q1018 NOSIG